createdAt,value
2023-03-29T00:04:50.085Z,4.55
2023-03-29T00:09:54.062Z,3.88
2023-03-29T00:14:56.719Z,4.18
2023-03-29T00:19:59.629Z,4.70
2023-03-29T00:25:04.024Z,4.22
2023-03-29T00:30:10.044Z,4.95
2023-03-29T00:35:12.819Z,4.47
2023-03-29T00:40:17.003Z,4.60
2023-03-29T00:45:22.289Z,2.83
2023-03-29T00:50:29.513Z,4.07
2023-03-29T00:55:37.187Z,3.58
2023-03-29T01:00:47.327Z,4.38
2023-03-29T01:05:52.502Z,3.40
2023-03-29T01:11:08.702Z,2.97
2023-03-29T01:16:12.804Z,5.93
2023-03-29T01:21:21.335Z,3.00
2023-03-29T01:26:30.774Z,3.15
2023-03-29T01:31:39.358Z,3.55
2023-03-29T01:36:46.494Z,4.15
2023-03-29T01:41:54.183Z,4.75
2023-03-29T01:47:03.875Z,3.65
2023-03-29T01:52:09.233Z,3.35
2023-03-29T01:57:14.371Z,3.05
2023-03-29T02:02:20.414Z,2.80
2023-03-29T02:07:25.251Z,3.00
2023-03-29T02:12:27.969Z,4.53
2023-03-29T02:17:32.048Z,2.95
2023-03-29T02:22:38.704Z,2.70
2023-03-29T02:27:42.418Z,2.65
2023-03-29T02:32:50.606Z,4.13
2023-03-29T02:37:56.006Z,2.88
2023-03-29T02:43:00.358Z,3.25
2023-03-29T02:48:06.566Z,3.58
2023-03-29T02:53:14.153Z,3.25
2023-03-29T02:58:18.616Z,3.28
2023-03-29T03:03:22.897Z,3.33
2023-03-29T03:08:26.144Z,2.42
2023-03-29T03:13:28.890Z,2.28
2023-03-29T03:18:33.060Z,3.22
2023-03-29T03:23:37.018Z,2.65
2023-03-29T03:28:40.034Z,4.15
2023-03-29T03:33:48.273Z,4.32
2023-03-29T03:39:17.442Z,2.90
2023-03-29T03:44:20.407Z,2.88
2023-03-29T03:49:32.932Z,3.40
2023-03-29T03:54:35.877Z,3.45
2023-03-29T04:00:19.275Z,2.67
2023-03-29T04:05:30.297Z,3.28
2023-03-29T04:10:34.231Z,3.22
2023-03-29T04:15:46.068Z,3.25
2023-03-29T04:20:51.661Z,3.35
2023-03-29T04:25:57.606Z,3.70
2023-03-29T04:31:18.949Z,3.60
2023-03-29T04:36:43.553Z,3.20
2023-03-29T04:41:53.252Z,7.90
2023-03-29T04:47:02.584Z,2.88
2023-03-29T04:52:33.066Z,8.35
2023-03-29T04:57:36.816Z,5.93
2023-03-29T05:02:53.648Z,9.65
2023-03-29T05:07:58.384Z,7.72
2023-03-29T05:13:08.925Z,8.10
2023-03-29T05:18:12.178Z,4.18
2023-03-29T05:23:17.463Z,5.40
2023-03-29T05:28:39.483Z,4.55
2023-03-29T05:33:43.356Z,3.90
2023-03-29T05:38:47.934Z,3.08
2023-03-29T05:43:50.801Z,2.90
2023-03-29T05:48:54.412Z,4.60
2023-03-29T05:54:03.977Z,4.68
2023-03-29T05:59:08.362Z,3.08
2023-03-29T06:04:12.404Z,2.90
2023-03-29T06:09:23.944Z,4.20
2023-03-29T06:14:45.612Z,2.72
2023-03-29T06:20:09.032Z,2.88
2023-03-29T06:25:15.416Z,2.25
2023-03-29T06:30:20.885Z,3.30
2023-03-29T06:35:27.442Z,2.78
2023-03-29T06:40:40.106Z,4.20
2023-03-29T06:45:43.654Z,4.28
2023-03-29T06:50:57.732Z,2.25
2023-03-29T06:56:09.179Z,3.33
2023-03-29T07:01:14.051Z,2.75
2023-03-29T07:06:30.877Z,3.15
2023-03-29T07:11:35.897Z,2.70
2023-03-29T07:16:52.416Z,3.80
2023-03-29T07:22:03.018Z,5.13
2023-03-29T07:27:32.047Z,2.55
2023-03-29T07:32:36.304Z,2.60
2023-03-29T07:38:00.014Z,2.45
2023-03-29T07:43:08.937Z,2.90
2023-03-29T07:48:12.584Z,4.85
2023-03-29T07:53:26.912Z,2.67
2023-03-29T07:58:33.477Z,3.25
2023-03-29T08:03:36.618Z,3.03
2023-03-29T08:08:41.892Z,3.67
2023-03-29T08:13:49.670Z,2.95
2023-03-29T08:19:10.979Z,2.58
2023-03-29T08:24:28.831Z,2.10
2023-03-29T08:29:38.056Z,2.15
2023-03-29T08:34:41.122Z,2.78
2023-03-29T08:40:01.580Z,2.35
2023-03-29T08:45:23.940Z,2.58
2023-03-29T08:50:34.582Z,2.63
2023-03-29T08:55:41.349Z,2.63
2023-03-29T09:01:08.577Z,2.25
2023-03-29T09:06:22.960Z,2.40
2023-03-29T09:11:43.734Z,2.42
2023-03-29T09:16:52.926Z,2.17
2023-03-29T09:22:00.350Z,2.17
2023-03-29T09:27:06.290Z,2.60
2023-03-29T09:32:21.460Z,1.95
2023-03-29T09:37:34.206Z,1.55
2023-03-29T09:42:37.993Z,6.25
2023-03-29T09:47:44.680Z,3.97
2023-03-29T09:52:49.342Z,2.50
2023-03-29T09:57:59.307Z,2.30
2023-03-29T10:03:04.741Z,4.00
2023-03-29T10:08:20.866Z,9.27
2023-03-29T10:13:29.205Z,2.53
2023-03-29T10:18:34.029Z,2.85
2023-03-29T10:23:38.541Z,2.83
2023-03-29T10:28:41.690Z,3.88
2023-03-29T10:33:52.618Z,2.63
2023-03-29T10:38:58.510Z,3.90
2023-03-29T10:44:01.836Z,2.00
2023-03-29T10:49:10.328Z,2.10
2023-03-29T10:54:15.351Z,2.83
2023-03-29T10:59:30.282Z,2.05
2023-03-29T11:04:38.928Z,2.53
2023-03-29T11:09:51.252Z,2.30
2023-03-29T11:15:02.897Z,1.92
2023-03-29T11:20:23.181Z,4.15
2023-03-29T11:25:33.358Z,6.28
2023-03-29T11:30:39.202Z,7.78
2023-03-29T11:35:52.533Z,10.40
2023-03-29T11:40:59.453Z,11.88
2023-03-29T11:46:05.060Z,8.13
2023-03-29T11:51:13.594Z,15.95
2023-03-29T11:56:21.131Z,13.77
2023-03-29T12:01:29.970Z,14.63
2023-03-29T12:06:38.279Z,12.25
2023-03-29T12:11:49.626Z,12.63
2023-03-29T12:16:54.571Z,12.52
2023-03-29T12:22:08.186Z,12.70
2023-03-29T12:27:23.961Z,11.00
2023-03-29T12:32:43.335Z,14.60
2023-03-29T12:38:20.485Z,17.27
2023-03-29T12:43:43.426Z,13.90
2023-03-29T12:49:11.359Z,10.40
2023-03-29T12:54:18.138Z,12.07
2023-03-29T12:59:28.321Z,13.60
2023-03-29T13:04:40.320Z,12.15
2023-03-29T13:09:51.652Z,11.18
2023-03-29T13:14:56.635Z,12.05
2023-03-29T13:20:22.623Z,11.93
2023-03-29T13:25:42.686Z,10.75
2023-03-29T13:30:56.497Z,9.30
2023-03-29T13:36:05.006Z,8.65
2023-03-29T13:41:27.600Z,9.30
2023-03-29T13:46:40.758Z,9.05
2023-03-29T13:51:49.838Z,7.60
2023-03-29T13:56:59.533Z,12.80
2023-03-29T14:02:04.279Z,10.02
2023-03-29T14:07:10.540Z,7.13
2023-03-29T14:12:15.614Z,11.45
2023-03-29T14:17:21.067Z,10.23
2023-03-29T14:22:23.779Z,7.45
2023-03-29T14:27:31.693Z,8.52
2023-03-29T14:32:34.472Z,8.25
2023-03-29T14:37:37.385Z,9.52
2023-03-29T14:42:42.431Z,7.10
2023-03-29T14:47:46.188Z,11.00
2023-03-29T14:52:52.285Z,9.50
2023-03-29T14:57:57.307Z,8.55
2023-03-29T15:03:01.617Z,5.55
2023-03-29T15:08:07.274Z,6.78
2023-03-29T15:13:17.553Z,5.80
2023-03-29T15:18:23.572Z,6.20
2023-03-29T15:23:26.939Z,6.07
2023-03-29T15:28:32.821Z,7.60
2023-03-29T15:33:37.355Z,5.65
2023-03-29T15:38:44.732Z,6.05
2023-03-29T15:43:49.789Z,5.85
2023-03-29T15:48:52.504Z,10.02
2023-03-29T15:53:55.169Z,4.95
2023-03-29T15:58:59.275Z,5.68
2023-03-29T16:04:02.101Z,4.97
2023-03-29T16:09:05.155Z,6.65
2023-03-29T16:14:15.852Z,4.90
2023-03-29T16:19:19.384Z,5.72
2023-03-29T16:24:24.077Z,6.63
2023-03-29T16:29:28.553Z,4.93
2023-03-29T16:34:31.399Z,4.72
2023-03-29T16:39:34.366Z,8.68
2023-03-29T16:44:38.554Z,5.25
2023-03-29T16:49:42.426Z,3.70
2023-03-29T16:54:47.078Z,5.18
2023-03-29T16:59:51.528Z,7.80
2023-03-29T17:04:54.286Z,6.93
2023-03-29T17:09:57.285Z,4.03
2023-03-29T17:15:01.495Z,4.78
2023-03-29T17:20:08.437Z,6.22
2023-03-29T17:25:11.242Z,5.53
2023-03-29T17:30:16.079Z,7.00
2023-03-29T17:35:19.159Z,3.30
2023-03-29T17:40:22.412Z,4.30
2023-03-29T17:45:26.548Z,5.47
2023-03-29T17:50:29.269Z,4.50
2023-03-29T17:55:33.201Z,3.92
2023-03-29T18:00:37.559Z,3.53
2023-03-29T18:05:40.303Z,3.60
2023-03-29T18:10:43.028Z,3.15
2023-03-29T18:15:47.521Z,4.07
2023-03-29T18:20:50.305Z,4.35
2023-03-29T18:25:53.518Z,5.15
2023-03-29T18:30:57.793Z,3.75
2023-03-29T18:36:01.038Z,3.47
2023-03-29T18:41:04.724Z,4.13
2023-03-29T18:46:08.957Z,4.43
2023-03-29T18:57:37.060Z,3.33
2023-03-29T19:14:59.068Z,4.18
2023-03-29T19:20:04.760Z,2.53
2023-03-29T19:25:08.917Z,3.22
2023-03-29T19:30:12.624Z,3.38
2023-03-29T19:35:16.882Z,4.05
2023-03-29T19:40:20.020Z,3.03
2023-03-29T19:45:23.351Z,3.58
2023-03-29T19:50:27.374Z,2.78
2023-03-29T19:55:39.463Z,2.30
2023-03-29T20:00:46.534Z,2.92
2023-03-29T20:05:50.634Z,3.20
2023-03-29T20:10:59.443Z,3.60
2023-03-29T20:16:02.214Z,3.00
2023-03-29T20:21:06.781Z,5.00
2023-03-29T20:26:10.509Z,3.15
2023-03-29T20:31:13.326Z,3.83
2023-03-29T20:36:18.415Z,2.25
2023-03-29T20:41:22.820Z,4.15
2023-03-29T20:46:32.991Z,2.97
2023-03-29T20:51:39.645Z,2.53
2023-03-29T20:56:44.347Z,4.00
2023-03-29T21:01:47.275Z,3.38
2023-03-29T21:06:51.456Z,2.28
2023-03-29T21:11:54.311Z,4.68
2023-03-29T21:16:57.799Z,3.17
2023-03-29T21:22:02.549Z,3.33
2023-03-29T21:27:05.299Z,3.03
2023-03-29T21:32:08.163Z,4.05
2023-03-29T21:37:14.667Z,2.50
2023-03-29T21:42:17.928Z,3.13
2023-03-29T21:47:20.841Z,4.30
2023-03-29T21:52:24.906Z,2.67
2023-03-29T21:57:28.863Z,3.53
2023-03-29T22:02:31.985Z,3.33
2023-03-29T22:07:38.599Z,3.28
2023-03-29T22:12:41.546Z,2.50
2023-03-29T22:17:44.537Z,5.28
2023-03-29T22:22:50.718Z,2.25
2023-03-29T22:27:53.467Z,2.90
2023-03-29T22:32:56.356Z,2.75
2023-03-29T22:38:00.820Z,2.08
2023-03-29T22:43:05.254Z,3.25
2023-03-29T22:48:08.309Z,2.10
2023-03-29T22:53:12.363Z,3.05
2023-03-29T22:58:15.085Z,2.97
2023-03-29T23:03:17.860Z,1.92
2023-03-29T23:08:22.199Z,2.45
2023-03-29T23:13:26.297Z,3.60
2023-03-29T23:18:30.823Z,3.03
2023-03-29T23:23:34.937Z,3.50
2023-03-29T23:28:37.687Z,2.75
2023-03-29T23:33:42.648Z,2.20
2023-03-29T23:38:49.897Z,3.53
2023-03-29T23:43:53.574Z,2.20
2023-03-29T23:48:56.695Z,1.75
2023-03-29T23:54:00.849Z,2.55
2023-03-29T23:59:04.408Z,4.43
